createdAt,value
2022-08-04T00:03:50.664Z,0.3
2022-08-04T00:08:49.557Z,0.3
2022-08-04T00:14:04.880Z,0.3
2022-08-04T00:18:46.453Z,0.3
2022-08-04T00:24:14.026Z,0.3
2022-08-04T00:28:44.924Z,0.3
2022-08-04T00:33:44.803Z,0.3
2022-08-04T00:43:44.048Z,0.3
2022-08-04T00:48:42.682Z,0.3
2022-08-04T00:53:51.585Z,0.3
2022-08-04T00:58:41.668Z,0.3
2022-08-04T01:03:38.484Z,0.3
2022-08-04T01:08:38.236Z,0.3
2022-08-04T01:13:37.728Z,0.3
2022-08-04T01:18:36.326Z,0.3
2022-08-04T01:23:35.542Z,0.3
2022-08-04T01:28:37.231Z,0.3
2022-08-04T01:34:05.844Z,0.3
2022-08-04T01:38:33.365Z,0.3
2022-08-04T01:43:31.559Z,0.3
2022-08-04T01:48:30.519Z,0.3
2022-08-04T01:53:29.983Z,0.3
2022-08-04T01:58:29.482Z,0.3
2022-08-04T01:59:51.054Z,0.3
2022-08-04T02:04:50.632Z,0.3
2022-08-04T02:09:56.144Z,0.2
2022-08-04T02:14:50.068Z,0.3
2022-08-04T02:19:48.567Z,0.3
2022-08-04T02:24:46.783Z,0.3
2022-08-04T02:29:45.734Z,0.3
2022-08-04T02:34:44.996Z,0.3
2022-08-04T02:39:51.068Z,0.2
2022-08-04T02:44:43.590Z,0.3
2022-08-04T02:49:43.735Z,0.3
2022-08-04T02:54:43.300Z,0.3
2022-08-04T02:59:17.899Z,0.2
2022-08-04T03:04:26.341Z,0.3
2022-08-04T03:09:15.866Z,0.3
2022-08-04T03:14:14.883Z,0.3
2022-08-04T03:19:13.777Z,0.3
2022-08-04T03:24:21.043Z,0.3
2022-08-04T03:29:13.702Z,0.3
2022-08-04T03:34:13.208Z,0.4
2022-08-04T03:39:12.707Z,0.5
2022-08-04T03:44:11.990Z,0.7
2022-08-04T03:54:16.482Z,1.8
2022-08-04T03:58:56.831Z,2.5
2022-08-04T04:03:56.412Z,3.2
2022-08-04T04:08:59.522Z,4.1
2022-08-04T04:13:56.074Z,4.6
2022-08-04T04:18:54.511Z,5.5
2022-08-04T04:23:53.969Z,5.8
2022-08-04T04:28:52.503Z,7.5
2022-08-04T04:33:50.621Z,9.3
2022-08-04T04:38:49.878Z,11
2022-08-04T04:43:53.671Z,13
2022-08-04T04:48:48.528Z,13.9
2022-08-04T04:53:48.530Z,14.5
2022-08-04T04:58:47.919Z,15.2
2022-08-04T05:03:47.034Z,15.9
2022-08-04T05:08:54.842Z,17.2
2022-08-04T05:14:42.185Z,18.5
2022-08-04T05:18:43.748Z,19.5
2022-08-04T05:23:43.160Z,21.2
2022-08-04T05:28:42.403Z,22
2022-08-04T05:33:44.067Z,24.3
2022-08-04T05:38:41.474Z,26
2022-08-04T05:43:41.621Z,26.9
2022-08-04T05:48:40.937Z,28.7
2022-08-04T05:53:40.096Z,32.1
2022-08-04T05:58:38.219Z,31
2022-08-04T06:03:37.483Z,39.5
2022-08-04T06:08:36.317Z,39.6
2022-08-04T06:13:52.174Z,40.2
2022-08-04T06:20:23.625Z,37.8
2022-08-04T06:23:56.201Z,44.6
2022-08-04T06:28:36.786Z,45.5
2022-08-04T06:33:55.449Z,48.6
2022-08-04T06:38:34.129Z,52.1
2022-08-04T06:43:43.788Z,54.1
2022-08-04T06:48:35.269Z,56.8
2022-08-04T06:53:29.405Z,58.1
2022-08-04T06:58:29.783Z,60
2022-08-04T06:59:51.703Z,60.5
2022-08-04T07:04:51.619Z,61.7
2022-08-04T07:09:50.248Z,64.9
2022-08-04T07:14:50.296Z,68
2022-08-04T07:19:49.724Z,364.3
2022-08-04T07:24:47.710Z,457.6
2022-08-04T07:29:45.818Z,444.5
2022-08-04T07:34:51.692Z,421.6
2022-08-04T07:39:50.093Z,502.8
2022-08-04T07:44:46.757Z,481.4
2022-08-04T07:49:58.961Z,497.3
2022-08-04T07:54:44.561Z,492.4
2022-08-04T07:58:47.303Z,509.7
2022-08-04T08:03:45.326Z,541.6
2022-08-04T08:08:44.668Z,590.9
2022-08-04T08:13:44.162Z,577.2
2022-08-04T08:18:51.186Z,561.7
2022-08-04T08:23:43.491Z,587
2022-08-04T08:28:43.531Z,641.7
2022-08-04T08:33:43.504Z,653.9
2022-08-04T08:38:42.730Z,663.3
2022-08-04T08:44:09.764Z,676.1
2022-08-04T08:48:41.029Z,686.5
2022-08-04T08:53:40.070Z,694.3
2022-08-04T08:58:27.290Z,702
2022-08-04T09:03:26.548Z,712.6
2022-08-04T09:08:25.885Z,722.9
2022-08-04T09:13:25.891Z,728.8
2022-08-04T09:18:25.418Z,737.4
2022-08-04T09:23:24.673Z,743.3
2022-08-04T09:28:55.348Z,750.9
2022-08-04T09:33:46.330Z,756
2022-08-04T09:38:21.525Z,764.6
2022-08-04T09:43:23.677Z,770.6
2022-08-04T09:48:20.900Z,776.1
2022-08-04T09:53:20.228Z,787.3
2022-08-04T09:58:20.404Z,790.8
2022-08-04T09:59:42.877Z,792.7
2022-08-04T10:04:42.376Z,802.6
2022-08-04T10:09:39.967Z,807.4
2022-08-04T10:14:39.414Z,812.5
2022-08-04T10:19:38.350Z,818.4
2022-08-04T10:24:37.585Z,823.3
2022-08-04T10:29:37.204Z,828.6
2022-08-04T10:34:37.077Z,755.8
2022-08-04T10:39:45.761Z,834.7
2022-08-04T10:44:43.990Z,841.4
2022-08-04T10:49:35.084Z,847
2022-08-04T10:54:33.155Z,851.1
2022-08-04T10:58:50.371Z,850.8
2022-08-04T11:00:10.522Z,851.1
2022-08-04T11:05:09.542Z,858.1
2022-08-04T11:10:09.870Z,857.6
2022-08-04T11:15:09.507Z,862.3
2022-08-04T11:20:36.772Z,862.9
2022-08-04T11:25:16.733Z,869.3
2022-08-04T11:30:14.843Z,870.9
2022-08-04T11:35:13.958Z,868.9
2022-08-04T11:40:13.921Z,870.1
2022-08-04T11:45:13.769Z,865.3
2022-08-04T11:50:12.891Z,863.5
2022-08-04T11:55:12.997Z,870.7
2022-08-04T11:59:35.399Z,866.9
2022-08-04T12:04:32.568Z,865.2
2022-08-04T12:09:31.491Z,863.8
2022-08-04T12:14:31.177Z,865.8
2022-08-04T12:20:32.255Z,856.4
2022-08-04T12:24:51.462Z,853.5
2022-08-04T12:29:30.032Z,850.3
2022-08-04T12:34:31.793Z,848.2
2022-08-04T12:39:27.776Z,849.4
2022-08-04T12:44:40.057Z,845.8
2022-08-04T12:49:26.146Z,839.2
2022-08-04T12:54:30.304Z,826.7
2022-08-04T12:59:14.291Z,505.5
2022-08-04T13:04:10.739Z,812.7
2022-08-04T13:09:19.770Z,191.1
2022-08-04T13:14:29.181Z,244
2022-08-04T13:19:14.020Z,377.2
2022-08-04T13:24:37.659Z,239.4
2022-08-04T13:30:30.056Z,169.2
2022-08-04T13:34:20.673Z,640
2022-08-04T13:39:19.367Z,656.1
2022-08-04T13:44:21.825Z,141.8
2022-08-04T13:50:10.029Z,516.9
2022-08-04T13:54:02.589Z,260.6
2022-08-04T13:58:55.111Z,309.4
2022-08-04T14:04:01.423Z,586.3
2022-08-04T14:08:49.380Z,689.2
2022-08-04T14:13:54.234Z,332.6
2022-08-04T14:18:49.161Z,521
2022-08-04T14:23:49.240Z,395.3
2022-08-04T14:29:32.789Z,104.1
2022-08-04T14:34:19.137Z,541.8
2022-08-04T14:38:51.281Z,129.2
2022-08-04T14:43:45.342Z,89.5
2022-08-04T14:48:52.520Z,96.1
2022-08-04T14:53:44.956Z,575.8
2022-08-04T14:58:43.978Z,566.5
2022-08-04T15:03:55.403Z,550.9
2022-08-04T15:08:53.360Z,534.2
2022-08-04T15:13:41.548Z,522.8
2022-08-04T15:18:41.273Z,517
2022-08-04T15:23:41.264Z,505.3
2022-08-04T15:28:44.163Z,484.9
2022-08-04T15:33:38.842Z,470.6
2022-08-04T15:38:44.498Z,441.5
2022-08-04T15:43:37.530Z,329.8
2022-08-04T15:48:41.963Z,73.9
2022-08-04T15:54:27.653Z,83.4
2022-08-04T15:58:35.517Z,84.5
2022-08-04T16:00:02.712Z,72.1
2022-08-04T16:04:59.067Z,221.2
2022-08-04T16:09:56.292Z,339.8
2022-08-04T16:14:55.924Z,94.2
2022-08-04T16:19:59.896Z,66
2022-08-04T16:24:53.959Z,63.8
2022-08-04T16:29:59.247Z,61.1
2022-08-04T16:34:57.184Z,59.3
2022-08-04T16:39:52.999Z,74.3
2022-08-04T16:44:54.806Z,118.6
2022-08-04T16:49:53.752Z,227.2
2022-08-04T16:54:48.310Z,73
2022-08-04T16:59:01.529Z,57.7
2022-08-04T17:03:59.237Z,81.5
2022-08-04T17:08:55.561Z,52.4
2022-08-04T17:14:10.978Z,49.9
2022-08-04T17:18:52.444Z,51.1
2022-08-04T17:24:18.994Z,28.3
2022-08-04T17:28:50.802Z,28.4
2022-08-04T17:34:02.411Z,38.7
2022-08-04T17:38:53.120Z,42.9
2022-08-04T17:44:08.101Z,46.7
2022-08-04T17:48:49.352Z,26.6
2022-08-04T17:54:08.989Z,18.5
2022-08-04T17:58:54.664Z,17.1
2022-08-04T18:03:55.487Z,15.3
2022-08-04T18:09:22.109Z,14.1
2022-08-04T18:13:44.741Z,12.8
2022-08-04T18:18:51.841Z,11.7
2022-08-04T18:24:01.522Z,10.2
2022-08-04T18:28:42.499Z,8.4
2022-08-04T18:34:00.601Z,6.9
2022-08-04T18:39:16.134Z,5.9
2022-08-04T22:25:17.131Z,4.8
2022-08-04T22:26:55.527Z,0.3
2022-08-04T22:27:06.495Z,0.4
2022-08-04T22:28:51.183Z,0.3
2022-08-04T22:33:57.185Z,0.3
2022-08-04T22:39:07.075Z,0.3
2022-08-04T22:43:55.955Z,0.3
2022-08-04T22:48:45.485Z,0.3
2022-08-04T22:53:49.934Z,0.3
2022-08-04T22:58:51.150Z,0.3
2022-08-04T23:00:10.461Z,0.3
2022-08-04T23:05:03.572Z,0.3
2022-08-04T23:10:06.061Z,0.2
2022-08-04T23:15:03.663Z,0.3
2022-08-04T23:20:02.051Z,0.3
2022-08-04T23:25:04.687Z,0.3
2022-08-04T23:29:58.158Z,0.3
2022-08-04T23:34:57.991Z,0.3
2022-08-04T23:40:34.873Z,0.2
2022-08-04T23:44:56.324Z,0.3
2022-08-04T23:49:59.770Z,0.3
2022-08-04T23:54:56.699Z,0.3
2022-08-04T23:59:54.237Z,0.3
